createdAt,value
2023-04-10T00:00:56.944Z,49.30
2023-04-10T00:03:25.397Z,49.23
2023-04-10T00:05:55.044Z,49.64
2023-04-10T00:08:22.811Z,49.31
2023-04-10T00:10:50.586Z,48.88
2023-04-10T00:13:20.397Z,48.86
2023-04-10T00:15:48.778Z,48.84
2023-04-10T00:18:16.421Z,49.16
2023-04-10T00:20:43.985Z,49.73
2023-04-10T00:23:13.000Z,49.83
2023-04-10T00:25:40.714Z,50.02
2023-04-10T00:28:08.547Z,50.13
2023-04-10T00:30:36.167Z,50.27
2023-04-10T00:33:03.959Z,50.40
2023-04-10T00:35:32.516Z,50.89
2023-04-10T00:38:00.228Z,50.29
2023-04-10T00:40:30.284Z,49.94
2023-04-10T00:42:57.944Z,50.05
2023-04-10T00:45:25.667Z,50.21
2023-04-10T00:47:53.340Z,50.53
2023-04-10T00:50:21.088Z,50.44
2023-04-10T00:52:49.072Z,49.79
2023-04-10T00:55:16.760Z,49.47
2023-04-10T00:57:47.010Z,49.32
2023-04-10T01:00:15.342Z,49.18
2023-04-10T01:02:43.289Z,49.23
2023-04-10T01:05:11.925Z,49.15
2023-04-10T01:07:43.096Z,48.73
2023-04-10T01:10:13.119Z,49.14
2023-04-10T01:12:45.648Z,49.76
2023-04-10T01:15:18.246Z,49.23
2023-04-10T01:17:47.382Z,49.08
2023-04-10T01:20:16.467Z,49.42
2023-04-10T01:22:47.660Z,49.26
2023-04-10T01:25:25.356Z,49.15
2023-04-10T01:27:56.397Z,49.01
2023-04-10T01:30:25.386Z,49.16
2023-04-10T01:32:53.186Z,49.16
2023-04-10T01:35:21.005Z,48.86
2023-04-10T01:37:48.701Z,49.32
2023-04-10T01:40:16.487Z,49.18
2023-04-10T01:42:46.006Z,49.11
2023-04-10T01:45:14.973Z,49.07
2023-04-10T01:47:47.406Z,48.96
2023-04-10T01:50:15.336Z,48.43
2023-04-10T01:52:43.244Z,48.74
2023-04-10T01:55:22.854Z,48.67
2023-04-10T01:57:55.819Z,48.75
2023-04-10T02:00:25.107Z,49.08
2023-04-10T02:02:54.468Z,49.54
2023-04-10T02:05:23.167Z,49.23
2023-04-10T02:07:51.778Z,48.93
2023-04-10T02:10:21.422Z,49.16
2023-04-10T02:12:53.561Z,49.74
2023-04-10T02:15:26.844Z,49.64
2023-04-10T02:17:56.186Z,49.32
2023-04-10T02:20:24.047Z,49.14
2023-04-10T02:22:52.114Z,49.24
2023-04-10T02:25:19.787Z,49.14
2023-04-10T02:27:47.378Z,49.25
2023-04-10T02:30:15.314Z,49.58
2023-04-10T02:32:44.298Z,49.67
2023-04-10T02:35:13.344Z,49.45
2023-04-10T02:37:42.535Z,49.36
2023-04-10T02:40:11.528Z,49.34
2023-04-10T02:42:57.837Z,49.55
2023-04-10T02:45:25.541Z,49.55
2023-04-10T02:47:53.282Z,49.75
2023-04-10T02:50:22.557Z,49.15
2023-04-10T02:52:50.330Z,48.54
2023-04-10T02:55:18.107Z,48.66
2023-04-10T02:57:46.355Z,48.84
2023-04-10T03:00:14.569Z,49.32
2023-04-10T03:03:05.439Z,49.67
2023-04-10T03:05:42.952Z,49.24
2023-04-10T03:08:10.560Z,49.22
2023-04-10T03:10:38.193Z,50.24
2023-04-10T03:13:06.001Z,49.56
2023-04-10T03:15:34.219Z,49.17
2023-04-10T03:18:02.206Z,49.21
2023-04-10T03:20:29.952Z,49.20
2023-04-10T03:22:58.932Z,49.28
2023-04-10T03:25:28.172Z,49.67
2023-04-10T03:27:56.419Z,49.53
2023-04-10T03:30:24.498Z,49.70
2023-04-10T03:32:52.157Z,50.07
2023-04-10T03:35:20.009Z,50.04
2023-04-10T03:37:50.534Z,49.58
2023-04-10T03:40:19.997Z,49.23
2023-04-10T03:42:47.911Z,49.01
2023-04-10T03:45:16.202Z,48.72
2023-04-10T03:47:44.086Z,48.67
2023-04-10T03:50:15.657Z,48.85
2023-04-10T03:52:50.715Z,48.51
2023-04-10T03:55:22.485Z,48.37
2023-04-10T03:57:51.987Z,48.31
2023-04-10T04:00:23.831Z,48.30
2023-04-10T04:03:01.037Z,48.01
2023-04-10T04:05:47.423Z,48.66
2023-04-10T04:08:38.810Z,48.43
2023-04-10T04:11:43.149Z,48.48
2023-04-10T04:14:32.476Z,48.67
2023-04-10T04:17:19.127Z,48.25
2023-04-10T04:20:08.318Z,48.03
2023-04-10T04:23:03.383Z,47.93
2023-04-10T04:26:02.842Z,47.98
2023-04-10T04:28:37.995Z,48.30
2023-04-10T04:31:25.232Z,48.39
2023-04-10T04:34:12.481Z,48.43
2023-04-10T04:36:40.116Z,48.52
2023-04-10T04:39:13.329Z,48.52
2023-04-10T04:41:59.442Z,48.78
2023-04-10T04:45:03.836Z,48.81
2023-04-10T04:47:51.889Z,49.03
2023-04-10T04:50:58.135Z,49.23
2023-04-10T04:53:43.943Z,49.70
2023-04-10T04:56:31.875Z,50.17
2023-04-10T04:59:18.033Z,50.22
2023-04-10T05:02:10.723Z,50.41
2023-04-10T05:05:05.442Z,50.72
2023-04-10T05:07:47.262Z,50.97
2023-04-10T05:10:35.360Z,51.40
2023-04-10T05:13:21.710Z,51.71
2023-04-10T05:16:09.844Z,51.44
2023-04-10T05:18:53.324Z,51.61
2023-04-10T05:21:56.795Z,52.06
2023-04-10T05:24:43.988Z,51.22
2023-04-10T05:27:44.004Z,51.87
2023-04-10T05:30:30.090Z,52.35
2023-04-10T05:33:30.110Z,51.83
2023-04-10T05:36:25.614Z,52.50
2023-04-10T05:39:03.564Z,52.47
2023-04-10T05:42:06.646Z,52.32
2023-04-10T05:44:57.668Z,52.63
2023-04-10T05:47:39.098Z,51.61
2023-04-10T05:50:38.938Z,52.60
2023-04-10T05:53:16.840Z,52.95
2023-04-10T05:56:05.524Z,51.84
2023-04-10T05:59:06.574Z,52.63
2023-04-10T06:02:03.461Z,51.81
2023-04-10T06:04:31.696Z,50.02
2023-04-10T06:07:02.269Z,49.05
2023-04-10T06:09:34.681Z,48.10
2023-04-10T06:12:02.621Z,46.88
2023-04-10T06:14:31.531Z,47.69
2023-04-10T06:16:59.689Z,47.22
2023-04-10T06:19:27.778Z,46.15
2023-04-10T06:21:55.885Z,46.11
2023-04-10T06:24:23.682Z,45.83
2023-04-10T06:26:53.813Z,45.17
2023-04-10T06:29:21.498Z,44.32
2023-04-10T06:31:49.771Z,44.78
2023-04-10T06:34:17.628Z,44.70
2023-04-10T06:36:54.900Z,42.46
2023-04-10T06:39:23.100Z,43.54
2023-04-10T06:41:50.814Z,42.77
2023-04-10T06:44:33.903Z,43.72
2023-04-10T06:47:01.606Z,43.08
2023-04-10T06:49:29.352Z,43.77
2023-04-10T06:51:57.259Z,44.99
2023-04-10T06:54:25.445Z,43.83
2023-04-10T06:56:53.332Z,44.48
2023-04-10T06:59:20.980Z,44.57
2023-04-10T07:01:50.079Z,43.75
2023-04-10T07:04:17.824Z,43.96
2023-04-10T07:06:45.482Z,43.82
2023-04-10T07:09:13.186Z,43.24
2023-04-10T07:11:41.004Z,43.29
2023-04-10T07:14:08.728Z,42.83
2023-04-10T07:16:37.198Z,42.67
2023-04-10T07:19:06.323Z,43.05
2023-04-10T07:21:34.050Z,43.15
2023-04-10T07:24:01.810Z,43.05
2023-04-10T07:26:29.536Z,44.20
2023-04-10T07:28:57.281Z,43.58
2023-04-10T07:31:25.090Z,43.01
2023-04-10T07:33:52.755Z,43.49
2023-04-10T07:36:21.803Z,42.80
2023-04-10T07:38:49.377Z,42.21
2023-04-10T07:41:17.095Z,41.78
2023-04-10T07:43:44.869Z,41.85
2023-04-10T07:46:12.570Z,42.43
2023-04-10T07:48:40.333Z,41.78
2023-04-10T07:51:09.313Z,42.82
2023-04-10T07:53:38.403Z,42.30
2023-04-10T07:56:06.513Z,41.57
2023-04-10T07:58:34.188Z,41.53
2023-04-10T08:01:01.874Z,39.59
2023-04-10T08:03:29.643Z,40.08
2023-04-10T08:05:57.371Z,40.10
2023-04-10T08:08:24.971Z,40.09
2023-04-10T08:10:54.020Z,39.14
2023-04-10T08:13:21.761Z,39.36
2023-04-10T08:15:49.445Z,39.42
2023-04-10T08:18:17.119Z,39.18
2023-04-10T08:20:44.739Z,39.43
2023-04-10T08:23:19.733Z,40.24
2023-04-10T08:25:48.397Z,38.81
2023-04-10T08:28:17.372Z,39.14
2023-04-10T08:30:45.085Z,38.31
2023-04-10T08:33:12.741Z,38.09
2023-04-10T08:35:40.394Z,38.53
2023-04-10T08:38:14.018Z,38.33
2023-04-10T08:40:44.340Z,37.77
2023-04-10T08:43:12.062Z,37.16
2023-04-10T08:45:42.589Z,38.48
2023-04-10T08:48:10.353Z,37.39
2023-04-10T08:50:37.975Z,36.32
2023-04-10T08:53:06.460Z,35.95
2023-04-10T08:55:34.108Z,35.76
2023-04-10T08:58:02.062Z,35.39
2023-04-10T09:00:31.525Z,35.72
2023-04-10T09:03:00.812Z,35.42
2023-04-10T09:05:28.893Z,36.24
2023-04-10T09:07:56.532Z,35.19
2023-04-10T09:10:24.330Z,36.06
2023-04-10T09:12:51.936Z,36.69
2023-04-10T09:15:19.530Z,36.36
2023-04-10T09:17:57.443Z,34.97
2023-04-10T09:20:27.690Z,34.74
2023-04-10T09:22:55.406Z,34.38
2023-04-10T09:25:29.913Z,33.84
2023-04-10T09:28:01.468Z,34.16
2023-04-10T09:30:34.623Z,33.41
2023-04-10T09:33:03.593Z,33.95
2023-04-10T09:35:39.401Z,33.90
2023-04-10T09:38:17.676Z,33.23
2023-04-10T09:40:45.677Z,33.76
2023-04-10T09:43:20.360Z,33.45
2023-04-10T09:45:48.469Z,31.57
2023-04-10T09:48:16.541Z,31.62
2023-04-10T09:50:45.582Z,32.54
2023-04-10T09:53:13.968Z,33.14
2023-04-10T09:55:41.908Z,32.13
2023-04-10T09:58:09.898Z,32.84
2023-04-10T10:00:39.500Z,32.37
2023-04-10T10:03:08.269Z,32.40
2023-04-10T10:05:36.577Z,31.55
2023-04-10T10:08:05.733Z,31.47
2023-04-10T10:10:33.419Z,31.96
2023-04-10T10:13:01.443Z,32.08
2023-04-10T10:15:30.342Z,32.20
2023-04-10T10:18:06.236Z,32.31
2023-04-10T10:20:35.412Z,31.63
2023-04-10T10:23:06.659Z,31.51
2023-04-10T10:25:34.376Z,31.45
2023-04-10T10:28:03.377Z,31.15
2023-04-10T10:30:31.147Z,31.46
2023-04-10T10:32:59.812Z,32.29
2023-04-10T10:35:29.659Z,32.13
2023-04-10T10:37:57.744Z,31.38
2023-04-10T10:40:28.629Z,32.12
2023-04-10T10:42:57.504Z,31.79
2023-04-10T10:45:27.273Z,31.22
2023-04-10T10:47:55.435Z,30.34
2023-04-10T10:50:24.636Z,30.89
2023-04-10T10:52:53.985Z,29.76
2023-04-10T10:55:34.687Z,30.02
2023-04-10T10:58:02.781Z,31.12
2023-04-10T11:00:48.844Z,30.31
2023-04-10T11:03:28.703Z,29.81
2023-04-10T11:05:57.175Z,29.84
2023-04-10T11:08:36.452Z,29.27
2023-04-10T11:11:06.060Z,28.61
2023-04-10T11:13:33.984Z,27.75
2023-04-10T11:16:02.911Z,27.86
2023-04-10T11:18:56.054Z,26.80
2023-04-10T11:21:34.186Z,28.46
2023-04-10T11:24:05.395Z,28.00
2023-04-10T11:26:43.504Z,27.30
2023-04-10T11:29:25.988Z,27.66
2023-04-10T11:31:56.294Z,27.16
2023-04-10T11:34:24.060Z,26.28
2023-04-10T11:36:53.286Z,26.77
2023-04-10T11:39:21.594Z,26.73
2023-04-10T11:41:51.158Z,26.66
2023-04-10T11:44:21.089Z,26.76
2023-04-10T11:46:51.053Z,25.59
2023-04-10T11:49:20.964Z,24.07
2023-04-10T11:51:49.136Z,23.25
2023-04-10T11:54:18.338Z,22.20
2023-04-10T11:56:46.754Z,21.78
2023-04-10T11:59:19.718Z,20.58
2023-04-10T12:01:47.569Z,19.39
2023-04-10T12:04:16.354Z,19.13
2023-04-10T12:06:45.103Z,20.16
2023-04-10T12:09:13.821Z,19.62
2023-04-10T12:11:49.182Z,19.73
2023-04-10T12:14:18.392Z,19.01
2023-04-10T12:16:46.125Z,18.60
2023-04-10T12:19:13.863Z,18.62
2023-04-10T12:21:42.338Z,18.48
2023-04-10T12:24:10.031Z,17.88
2023-04-10T12:26:37.672Z,17.07
2023-04-10T12:29:06.307Z,16.95
2023-04-10T12:31:36.340Z,17.15
2023-04-10T12:34:05.458Z,15.93
2023-04-10T12:36:34.859Z,15.55
2023-04-10T12:39:02.971Z,15.07
2023-04-10T12:41:31.347Z,15.85
2023-04-10T12:44:07.973Z,14.42
2023-04-10T12:46:37.411Z,14.16
2023-04-10T12:49:11.577Z,14.96
2023-04-10T12:51:45.970Z,14.88
2023-04-10T12:54:13.630Z,15.40
2023-04-10T12:56:44.476Z,15.37
2023-04-10T12:59:12.619Z,15.05
2023-04-10T13:01:41.713Z,15.08
2023-04-10T13:04:09.549Z,15.45
2023-04-10T13:06:43.311Z,15.42
2023-04-10T13:09:10.972Z,14.76
2023-04-10T13:11:38.618Z,15.19
2023-04-10T13:14:06.294Z,15.09
2023-04-10T13:16:34.025Z,14.85
2023-04-10T13:19:03.019Z,14.72
2023-04-10T13:21:30.648Z,15.46
2023-04-10T13:23:58.298Z,15.30
2023-04-10T13:26:25.928Z,15.31
2023-04-10T13:28:53.882Z,15.48
2023-04-10T13:31:21.719Z,14.69
2023-04-10T13:33:49.503Z,13.67
2023-04-10T13:36:18.556Z,13.43
2023-04-10T13:38:46.276Z,14.34
2023-04-10T13:41:13.864Z,13.40
2023-04-10T13:43:41.516Z,14.08
2023-04-10T13:46:09.141Z,14.58
2023-04-10T13:48:41.140Z,14.17
2023-04-10T13:51:09.065Z,15.01
2023-04-10T13:53:38.064Z,15.11
2023-04-10T13:56:06.225Z,15.72
2023-04-10T13:58:34.415Z,15.38
2023-04-10T14:01:02.209Z,15.27
2023-04-10T14:03:30.076Z,16.05
2023-04-10T14:05:57.828Z,17.58
2023-04-10T14:08:25.524Z,17.56
2023-04-10T14:10:54.513Z,16.09
2023-04-10T14:13:22.118Z,16.05
2023-04-10T14:15:51.973Z,15.18
2023-04-10T14:18:19.858Z,15.17
2023-04-10T14:20:47.540Z,16.50
2023-04-10T14:23:18.294Z,17.13
2023-04-10T14:25:46.274Z,16.52
2023-04-10T14:28:17.968Z,15.76
2023-04-10T14:30:45.924Z,15.41
2023-04-10T14:33:13.724Z,15.54
2023-04-10T14:35:41.469Z,14.90
2023-04-10T14:38:09.208Z,15.23
2023-04-10T14:40:37.168Z,15.52
2023-04-10T14:43:04.917Z,15.18
2023-04-10T14:45:34.032Z,14.92
2023-04-10T14:48:02.213Z,14.87
2023-04-10T14:50:30.450Z,14.60
2023-04-10T14:52:59.960Z,14.86
2023-04-10T14:55:27.614Z,15.64
2023-04-10T14:57:57.901Z,15.28
2023-04-10T15:00:26.448Z,15.89
2023-04-10T15:02:57.234Z,16.57
2023-04-10T15:05:25.388Z,16.63
2023-04-10T15:07:53.036Z,18.31
2023-04-10T15:10:20.770Z,18.82
2023-04-10T15:12:48.425Z,19.80
2023-04-10T15:15:16.172Z,20.52
2023-04-10T15:17:43.821Z,20.74
2023-04-10T15:20:13.231Z,19.38
2023-04-10T15:22:42.509Z,18.87
2023-04-10T15:25:11.945Z,18.38
2023-04-10T15:27:40.101Z,17.25
2023-04-10T15:30:08.150Z,17.85
2023-04-10T15:32:37.640Z,18.11
2023-04-10T15:35:05.679Z,18.12
2023-04-10T15:37:34.882Z,18.78
2023-04-10T15:40:04.463Z,19.37
2023-04-10T15:42:32.273Z,19.47
2023-04-10T15:44:59.907Z,19.20
2023-04-10T15:47:27.598Z,18.73
2023-04-10T15:49:58.103Z,17.71
2023-04-10T15:52:25.813Z,16.51
2023-04-10T15:54:54.866Z,16.15
2023-04-10T15:57:22.438Z,16.61
2023-04-10T15:59:52.254Z,16.43
2023-04-10T16:02:19.983Z,16.27
2023-04-10T16:04:47.729Z,16.49
2023-04-10T16:07:15.516Z,16.66
2023-04-10T16:09:43.132Z,16.59
2023-04-10T16:12:13.493Z,16.46
2023-04-10T16:14:41.090Z,17.50
2023-04-10T16:17:08.710Z,18.24
2023-04-10T16:19:36.367Z,18.27
2023-04-10T16:22:04.076Z,18.71
2023-04-10T16:24:32.489Z,19.91
2023-04-10T16:27:02.106Z,19.89
2023-04-10T16:29:31.276Z,20.15
2023-04-10T16:31:58.982Z,20.19
2023-04-10T16:34:26.601Z,21.35
2023-04-10T16:36:54.342Z,21.26
2023-04-10T16:39:22.096Z,21.50
2023-04-10T16:41:49.773Z,21.99
2023-04-10T16:44:17.443Z,22.27
2023-04-10T16:46:46.414Z,22.24
2023-04-10T16:49:14.106Z,23.11
2023-04-10T16:51:41.795Z,22.15
2023-04-10T16:54:09.416Z,22.91
2023-04-10T16:56:37.096Z,22.61
2023-04-10T16:59:04.714Z,23.02
2023-04-10T17:01:34.060Z,22.90
2023-04-10T17:04:03.219Z,23.13
2023-04-10T17:06:31.326Z,23.57
2023-04-10T17:08:59.080Z,23.93
2023-04-10T17:11:26.768Z,23.87
2023-04-10T17:13:54.772Z,24.36
2023-04-10T17:16:22.482Z,24.92
2023-04-10T17:18:50.251Z,25.10
2023-04-10T17:21:19.247Z,25.55
2023-04-10T17:23:46.880Z,25.38
2023-04-10T17:26:15.092Z,25.70
2023-04-10T17:28:44.386Z,25.37
2023-04-10T17:31:12.153Z,25.23
2023-04-10T17:33:41.649Z,25.70
2023-04-10T17:36:10.093Z,25.71
2023-04-10T17:38:39.229Z,25.80
2023-04-10T17:41:07.139Z,26.40
2023-04-10T17:43:34.745Z,26.70
2023-04-10T17:46:02.585Z,26.74
2023-04-10T17:48:30.359Z,27.01
2023-04-10T17:50:58.137Z,27.13
2023-04-10T17:53:25.751Z,27.58
2023-04-10T17:55:54.745Z,27.60
2023-04-10T17:58:22.336Z,28.13
2023-04-10T18:00:50.369Z,28.43
2023-04-10T18:03:18.121Z,28.50
2023-04-10T18:05:45.809Z,28.31
2023-04-10T18:08:14.466Z,28.73
2023-04-10T18:10:42.063Z,28.78
2023-04-10T18:13:11.818Z,29.13
2023-04-10T18:15:39.439Z,28.62
2023-04-10T18:18:07.149Z,29.46
2023-04-10T18:20:35.696Z,29.77
2023-04-10T18:23:04.677Z,29.28
2023-04-10T18:25:32.399Z,29.70
2023-04-10T18:28:13.668Z,29.91
2023-04-10T18:30:43.848Z,30.14
2023-04-10T18:33:11.721Z,29.97
2023-04-10T18:35:39.629Z,29.76
2023-04-10T18:38:07.300Z,30.17
2023-04-10T18:40:36.808Z,29.74
2023-04-10T18:43:04.636Z,29.97
2023-04-10T18:45:33.928Z,29.71
2023-04-10T18:48:02.976Z,29.56
2023-04-10T18:50:31.458Z,29.76
2023-04-10T18:52:59.154Z,29.87
2023-04-10T18:55:26.803Z,29.96
2023-04-10T18:57:54.496Z,30.74
2023-04-10T19:00:22.355Z,31.10
2023-04-10T19:02:50.097Z,30.58
2023-04-10T19:05:19.349Z,31.09
2023-04-10T19:08:00.581Z,30.95
2023-04-10T19:10:31.139Z,31.22
2023-04-10T19:12:58.847Z,30.78
2023-04-10T19:15:26.446Z,31.08
2023-04-10T19:17:54.533Z,31.24
2023-04-10T19:20:51.170Z,31.15
2023-04-10T19:23:11.738Z,31.14
2023-04-10T19:25:39.406Z,30.74
2023-04-10T19:28:07.501Z,30.95
2023-04-10T19:30:35.155Z,31.15
2023-04-10T19:33:02.896Z,30.79
2023-04-10T19:35:31.948Z,31.25
2023-04-10T19:37:59.583Z,30.88
2023-04-10T19:40:27.299Z,30.60
2023-04-10T19:42:55.176Z,30.84
2023-04-10T19:45:27.192Z,31.24
2023-04-10T19:47:54.892Z,30.60
2023-04-10T19:50:22.694Z,30.91
2023-04-10T19:52:52.510Z,30.81
2023-04-10T19:55:20.187Z,30.66
2023-04-10T19:57:48.179Z,31.11
2023-04-10T20:00:15.911Z,30.83
2023-04-10T20:02:43.872Z,31.14
2023-04-10T20:05:11.825Z,31.54
2023-04-10T20:07:39.534Z,31.21
2023-04-10T20:10:09.398Z,30.60
2023-04-10T20:12:36.998Z,30.46
2023-04-10T20:15:05.072Z,30.61
2023-04-10T20:17:32.728Z,30.87
2023-04-10T20:20:00.376Z,30.73
2023-04-10T20:22:28.066Z,30.81
2023-04-10T20:24:55.758Z,30.50
2023-04-10T20:27:25.286Z,30.17
2023-04-10T20:29:53.002Z,31.05
2023-04-10T20:32:20.662Z,30.39
2023-04-10T20:34:48.347Z,31.01
2023-04-10T20:37:21.540Z,31.08
2023-04-10T20:39:49.231Z,30.44
2023-04-10T20:42:17.748Z,29.93
2023-04-10T20:44:46.805Z,29.97
2023-04-10T20:47:14.514Z,29.90
2023-04-10T20:49:42.227Z,30.08
2023-04-10T20:52:09.847Z,30.43
2023-04-10T20:54:37.511Z,30.12
2023-04-10T20:57:06.501Z,29.60
2023-04-10T20:59:35.914Z,29.85
2023-04-10T21:02:04.969Z,29.33
2023-04-10T21:04:33.065Z,29.79
2023-04-10T21:07:00.736Z,29.50
2023-04-10T21:09:28.386Z,30.40
2023-04-10T21:11:55.976Z,29.57
2023-04-10T21:14:23.632Z,29.34
2023-04-10T21:16:51.389Z,29.49
2023-04-10T21:19:20.607Z,29.56
2023-04-10T21:21:48.214Z,29.38
2023-04-10T21:24:15.892Z,29.26
2023-04-10T21:26:43.557Z,29.37
2023-04-10T21:29:11.271Z,28.82
2023-04-10T21:31:38.913Z,28.84
2023-04-10T21:34:06.640Z,29.34
2023-04-10T21:36:35.645Z,28.87
2023-04-10T21:39:03.281Z,29.61
2023-04-10T21:41:30.896Z,29.54
2023-04-10T21:44:00.292Z,28.67
2023-04-10T21:46:28.078Z,29.07
2023-04-10T21:48:56.079Z,29.22
2023-04-10T21:51:25.687Z,29.21
2023-04-10T21:53:55.839Z,29.39
2023-04-10T21:56:23.490Z,29.81
2023-04-10T21:58:53.055Z,30.98
2023-04-10T22:01:20.990Z,29.99
2023-04-10T22:03:48.786Z,29.72
2023-04-10T22:06:16.469Z,30.06
2023-04-10T22:08:44.603Z,30.04
2023-04-10T22:11:14.024Z,30.69
2023-04-10T22:13:41.653Z,30.10
2023-04-10T22:16:09.563Z,30.32
2023-04-10T22:18:37.207Z,30.88
2023-04-10T22:21:04.929Z,31.23
2023-04-10T22:23:32.608Z,31.51
2023-04-10T22:26:00.566Z,30.78
2023-04-10T22:28:29.860Z,31.07
2023-04-10T22:30:57.590Z,31.50
2023-04-10T22:33:25.258Z,31.36
2023-04-10T22:35:53.206Z,31.52
2023-04-10T22:38:20.869Z,30.63
2023-04-10T22:40:48.507Z,32.03
2023-04-10T22:43:16.100Z,31.73
2023-04-10T22:45:45.210Z,31.53
2023-04-10T22:48:12.843Z,30.82
2023-04-10T22:50:40.442Z,31.28
2023-04-10T22:53:07.996Z,31.06
2023-04-10T22:55:35.995Z,31.49
2023-04-10T22:58:03.568Z,31.87
2023-04-10T23:00:31.211Z,31.92
2023-04-10T23:03:00.419Z,32.12
2023-04-10T23:05:28.217Z,31.43
2023-04-10T23:07:56.001Z,31.49
2023-04-10T23:10:23.699Z,30.89
2023-04-10T23:12:51.466Z,32.32
2023-04-10T23:15:19.160Z,31.46
2023-04-10T23:17:46.861Z,31.35
2023-04-10T23:20:16.052Z,30.48
2023-04-10T23:22:43.649Z,31.41
2023-04-10T23:25:11.319Z,31.51
2023-04-10T23:27:39.619Z,30.86
2023-04-10T23:30:07.797Z,31.12
2023-04-10T23:32:35.465Z,30.73
2023-04-10T23:35:03.336Z,31.39
2023-04-10T23:37:33.746Z,31.77
2023-04-10T23:40:01.395Z,32.04
2023-04-10T23:42:29.052Z,32.16
2023-04-10T23:44:56.748Z,31.72
2023-04-10T23:47:24.426Z,31.81
2023-04-10T23:49:52.169Z,32.31
2023-04-10T23:52:19.819Z,31.94
2023-04-10T23:54:48.837Z,31.76
2023-04-10T23:57:16.489Z,31.30
2023-04-10T23:59:44.121Z,32.36
